createdAt,value
2018-10-11T00:01:31.181Z,14
2018-10-11T00:11:27.934Z,14
2018-10-11T00:21:27.957Z,14
2018-10-11T00:31:28.894Z,14
2018-10-11T00:41:28.595Z,14
2018-10-11T00:51:27.356Z,14
2018-10-11T01:01:28.348Z,14
2018-10-11T01:11:27.305Z,13
2018-10-11T01:21:27.359Z,14
2018-10-11T01:31:28.209Z,14
2018-10-11T01:41:27.956Z,13
2018-10-11T01:51:28.747Z,14
2018-10-11T02:01:32.691Z,14
2018-10-11T02:11:27.788Z,13
2018-10-11T02:21:27.901Z,14
2018-10-11T02:31:29.059Z,14
2018-10-11T02:41:30.380Z,13
2018-10-11T02:51:28.111Z,13
2018-10-11T03:01:45.916Z,13
2018-10-11T03:11:27.995Z,13
2018-10-11T03:21:28.027Z,13
2018-10-11T03:31:28.196Z,13
2018-10-11T03:41:30.077Z,13
2018-10-11T03:51:27.993Z,13
2018-10-11T04:01:31.376Z,13
2018-10-11T04:11:27.793Z,13
2018-10-11T04:21:27.916Z,12
2018-10-11T04:31:27.668Z,12
2018-10-11T04:41:28.358Z,12
2018-10-11T04:51:27.151Z,12
2018-10-11T05:01:27.991Z,12
2018-10-11T05:11:28.080Z,12
2018-10-11T05:21:27.198Z,12
2018-10-11T05:31:27.003Z,12
2018-10-11T05:41:28.645Z,12
2018-10-11T05:51:27.624Z,13
2018-10-11T06:01:27.895Z,12
2018-10-11T06:11:30.481Z,12
2018-10-11T06:21:28.210Z,13
2018-10-11T06:31:29.170Z,12
2018-10-11T06:41:28.085Z,12
2018-10-11T06:51:27.367Z,12
2018-10-11T07:01:28.162Z,12
2018-10-11T07:11:28.797Z,12
2018-10-11T07:21:28.719Z,12
2018-10-11T07:31:28.651Z,13
2018-10-11T07:41:27.499Z,12
2018-10-11T07:51:27.579Z,12
2018-10-11T08:01:28.468Z,13
2018-10-11T08:11:28.377Z,13
2018-10-11T08:21:29.705Z,13
2018-10-11T08:31:27.829Z,13
2018-10-11T08:41:30.180Z,13
2018-10-11T08:51:28.237Z,13
2018-10-11T09:01:28.529Z,14
2018-10-11T09:11:28.140Z,14
2018-10-11T09:21:30.194Z,14
2018-10-11T09:31:27.972Z,14
2018-10-11T09:41:29.450Z,14
2018-10-11T09:51:27.229Z,14
2018-10-11T10:01:28.100Z,15
2018-10-11T10:11:28.246Z,15
2018-10-11T10:21:27.741Z,15
2018-10-11T10:31:28.272Z,15
2018-10-11T10:41:28.245Z,15
2018-10-11T10:51:28.958Z,16
2018-10-11T11:01:27.720Z,16
2018-10-11T11:11:28.143Z,16
2018-10-11T11:21:27.142Z,16
2018-10-11T11:31:28.467Z,17
2018-10-11T11:41:27.405Z,16
2018-10-11T11:51:30.324Z,17
2018-10-11T12:01:26.153Z,17
2018-10-11T12:11:29.309Z,17
2018-10-11T12:21:27.402Z,17
2018-10-11T12:31:27.999Z,18
2018-10-11T12:41:28.057Z,18
2018-10-11T12:51:27.370Z,18
2018-10-11T13:01:26.407Z,18
2018-10-11T13:11:28.261Z,18
2018-10-11T13:21:26.872Z,18
2018-10-11T13:31:27.636Z,18
2018-10-11T13:41:29.370Z,18
2018-10-11T13:51:27.939Z,18
2018-10-11T14:01:28.841Z,18
2018-10-11T14:11:26.670Z,18
2018-10-11T14:21:27.727Z,19
2018-10-11T14:31:26.580Z,19
2018-10-11T14:41:27.412Z,18
2018-10-11T14:51:26.841Z,19
2018-10-11T15:01:29.545Z,19
2018-10-11T15:11:28.212Z,19
2018-10-11T15:21:27.453Z,20
2018-10-11T15:31:26.377Z,19
2018-10-11T15:41:27.103Z,19
2018-10-11T15:51:28.177Z,18
2018-10-11T16:01:26.404Z,18
2018-10-11T16:11:27.265Z,18
2018-10-11T16:21:27.386Z,18
2018-10-11T16:31:28.510Z,18
2018-10-11T16:41:27.323Z,18
2018-10-11T16:51:28.162Z,17
2018-10-11T17:01:29.695Z,18
2018-10-11T17:11:26.493Z,17
2018-10-11T17:21:28.172Z,17
2018-10-11T17:31:28.155Z,17
2018-10-11T17:41:28.141Z,17
2018-10-11T17:51:28.424Z,17
2018-10-11T18:01:27.736Z,17
2018-10-11T18:11:28.425Z,16
2018-10-11T18:21:27.625Z,17
2018-10-11T18:31:29.404Z,16
2018-10-11T18:41:27.156Z,17
2018-10-11T18:51:27.637Z,16
2018-10-11T19:01:28.034Z,16
2018-10-11T19:11:28.602Z,16
2018-10-11T19:21:27.841Z,17
2018-10-11T19:31:28.125Z,16
2018-10-11T19:41:28.986Z,16
2018-10-11T19:51:28.467Z,16
2018-10-11T20:01:28.817Z,16
2018-10-11T20:11:26.955Z,16
2018-10-11T20:21:29.377Z,16
2018-10-11T20:31:27.190Z,16
2018-10-11T20:41:28.856Z,16
2018-10-11T20:51:31.090Z,16
2018-10-11T21:01:28.143Z,16
2018-10-11T21:11:28.852Z,16
2018-10-11T21:21:27.903Z,16
2018-10-11T21:31:28.729Z,15
2018-10-11T21:41:27.617Z,15
2018-10-11T21:51:26.694Z,15
2018-10-11T22:01:27.683Z,15
2018-10-11T22:11:28.631Z,15
2018-10-11T22:21:27.849Z,15
2018-10-11T22:31:28.449Z,15
2018-10-11T22:41:27.942Z,15
2018-10-11T22:51:27.748Z,15
2018-10-11T23:01:27.791Z,15
2018-10-11T23:11:27.576Z,15
2018-10-11T23:21:28.237Z,15
2018-10-11T23:31:27.191Z,15
2018-10-11T23:41:28.866Z,14
2018-10-11T23:51:28.369Z,14
